createdAt,value
2023-08-17T00:00:12.155Z,0
2023-08-17T00:01:28.251Z,0
2023-08-17T00:02:44.365Z,0
2023-08-17T00:04:00.453Z,0
2023-08-17T00:05:16.575Z,0
2023-08-17T00:06:32.678Z,0
2023-08-17T00:07:48.795Z,0
2023-08-17T00:09:04.887Z,0
2023-08-17T00:10:21.003Z,0
2023-08-17T00:11:37.112Z,0
2023-08-17T00:12:53.326Z,0
2023-08-17T00:14:08.546Z,0
2023-08-17T00:15:24.596Z,0
2023-08-17T00:16:40.648Z,0
2023-08-17T00:17:56.701Z,0
2023-08-17T00:19:12.746Z,0
2023-08-17T00:20:28.790Z,0
2023-08-17T00:21:44.846Z,0
2023-08-17T00:23:00.915Z,0
2023-08-17T00:24:16.967Z,0
2023-08-17T00:25:33.021Z,0
2023-08-17T00:26:49.068Z,0
2023-08-17T00:28:05.124Z,0
2023-08-17T00:29:21.156Z,0
2023-08-17T00:30:37.221Z,0
2023-08-17T00:31:53.268Z,0
2023-08-17T00:33:09.328Z,0
2023-08-17T00:34:25.378Z,0
2023-08-17T00:35:41.415Z,0
2023-08-17T00:36:57.481Z,0
2023-08-17T00:38:13.525Z,0
2023-08-17T00:39:29.584Z,0
2023-08-17T00:40:45.621Z,0
2023-08-17T00:42:01.688Z,0
2023-08-17T00:43:17.748Z,0
2023-08-17T00:44:33.790Z,0
2023-08-17T00:45:49.901Z,0
2023-08-17T00:47:06.009Z,0
2023-08-17T00:48:22.132Z,0
2023-08-17T00:49:38.240Z,0
2023-08-17T00:50:54.356Z,0
2023-08-17T00:52:10.465Z,0
2023-08-17T00:53:26.568Z,0
2023-08-17T00:54:42.689Z,0
2023-08-17T00:55:58.793Z,0
2023-08-17T00:57:14.905Z,0
2023-08-17T00:58:31.018Z,0
2023-08-17T00:59:47.123Z,0
2023-08-17T01:01:03.233Z,0
2023-08-17T01:02:19.456Z,0
2023-08-17T01:03:34.721Z,0
2023-08-17T01:04:50.824Z,0
2023-08-17T01:06:06.923Z,0
2023-08-17T01:07:23.032Z,0
2023-08-17T01:08:39.144Z,0
2023-08-17T01:09:55.235Z,0
2023-08-17T01:11:11.344Z,0
2023-08-17T01:12:27.439Z,0
2023-08-17T01:13:43.555Z,0
2023-08-17T01:14:59.663Z,0
2023-08-17T01:16:15.757Z,0
2023-08-17T01:17:31.858Z,0
2023-08-17T01:18:47.974Z,0
2023-08-17T01:20:04.090Z,0
2023-08-17T01:21:20.207Z,0
2023-08-17T01:22:36.306Z,0
2023-08-17T01:23:52.415Z,0
2023-08-17T01:25:08.523Z,0
2023-08-17T01:26:24.632Z,0
2023-08-17T01:27:40.740Z,0
2023-08-17T01:28:56.845Z,0
2023-08-17T01:30:12.971Z,0
2023-08-17T01:31:29.087Z,0
2023-08-17T01:32:45.196Z,0
2023-08-17T01:34:01.310Z,0
2023-08-17T01:35:17.534Z,0
2023-08-17T01:36:32.737Z,0
2023-08-17T01:37:48.778Z,0
2023-08-17T01:39:04.841Z,0
2023-08-17T01:40:20.892Z,0
2023-08-17T01:41:36.925Z,0
2023-08-17T01:42:52.987Z,0
2023-08-17T01:44:09.036Z,0
2023-08-17T01:45:25.093Z,0
2023-08-17T01:46:41.154Z,0
2023-08-17T01:47:57.212Z,0
2023-08-17T01:49:13.244Z,0
2023-08-17T01:50:29.308Z,0
2023-08-17T01:51:45.348Z,0
2023-08-17T01:53:01.405Z,0
2023-08-17T01:54:17.458Z,0
2023-08-17T01:55:33.498Z,0
2023-08-17T01:56:49.569Z,0
2023-08-17T01:58:05.617Z,0
2023-08-17T01:59:21.678Z,0
2023-08-17T02:00:37.726Z,0
2023-08-17T02:01:53.784Z,0
2023-08-17T02:03:09.830Z,0
2023-08-17T02:04:25.889Z,0
2023-08-17T02:05:41.937Z,0
2023-08-17T02:06:57.995Z,0
2023-08-17T02:08:14.101Z,0
2023-08-17T02:09:30.217Z,0
2023-08-17T02:10:46.331Z,0
2023-08-17T02:12:02.437Z,0
2023-08-17T02:13:18.556Z,0
2023-08-17T02:14:34.662Z,0
2023-08-17T02:15:50.781Z,0
2023-08-17T02:17:06.903Z,0
2023-08-17T02:18:23.019Z,0
2023-08-17T02:19:39.128Z,0
2023-08-17T02:20:55.251Z,0
2023-08-17T02:22:11.360Z,0
2023-08-17T02:23:27.468Z,0
2023-08-17T02:24:43.668Z,0
2023-08-17T02:25:58.875Z,0
2023-08-17T02:27:14.943Z,0
2023-08-17T02:28:30.996Z,0
2023-08-17T02:29:47.042Z,0
2023-08-17T02:31:03.109Z,0
2023-08-17T02:32:19.160Z,0
2023-08-17T02:33:35.222Z,0
2023-08-17T02:34:51.279Z,0
2023-08-17T02:36:07.324Z,0
2023-08-17T02:37:23.391Z,0
2023-08-17T02:38:39.442Z,0
2023-08-17T02:39:55.497Z,0
2023-08-17T02:41:11.540Z,0
2023-08-17T02:42:27.612Z,0
2023-08-17T02:43:43.670Z,0
2023-08-17T02:44:59.716Z,0
2023-08-17T02:46:15.772Z,0
2023-08-17T02:47:31.843Z,0
2023-08-17T02:48:47.899Z,0
2023-08-17T02:50:03.957Z,0
2023-08-17T02:51:20.011Z,0
2023-08-17T02:52:36.077Z,0
2023-08-17T02:53:52.130Z,0
2023-08-17T02:55:08.189Z,0
2023-08-17T02:56:24.239Z,0
2023-08-17T02:57:40.341Z,0
2023-08-17T02:58:56.452Z,0
2023-08-17T03:00:12.579Z,0
2023-08-17T03:01:28.696Z,0
2023-08-17T03:02:44.797Z,0
2023-08-17T03:04:00.930Z,0
2023-08-17T03:06:33.136Z,0
2023-08-17T03:07:49.264Z,0
2023-08-17T03:09:04.400Z,0
2023-08-17T03:10:20.472Z,0
2023-08-17T03:11:36.519Z,0
2023-08-17T03:12:52.593Z,0
2023-08-17T03:14:08.652Z,0
2023-08-17T03:15:24.716Z,0
2023-08-17T03:16:40.782Z,0
2023-08-17T03:17:56.849Z,0
2023-08-17T03:19:12.894Z,0
2023-08-17T03:20:28.972Z,0
2023-08-17T03:21:45.026Z,0
2023-08-17T03:23:01.071Z,0
2023-08-17T03:24:17.145Z,0
2023-08-17T03:25:33.196Z,0
2023-08-17T03:26:49.263Z,0
2023-08-17T03:28:05.322Z,0
2023-08-17T03:29:21.382Z,0
2023-08-17T03:30:37.432Z,0
2023-08-17T03:31:53.514Z,0
2023-08-17T03:33:09.571Z,0
2023-08-17T03:34:25.631Z,0
2023-08-17T03:35:41.685Z,0
2023-08-17T03:36:57.756Z,0
2023-08-17T03:38:13.808Z,0
2023-08-17T03:39:29.861Z,0
2023-08-17T03:40:45.991Z,0
2023-08-17T03:42:02.106Z,0
2023-08-17T03:43:18.206Z,0
2023-08-17T03:44:34.316Z,0
2023-08-17T03:45:50.439Z,0
2023-08-17T03:47:06.546Z,0
2023-08-17T03:48:22.656Z,0
2023-08-17T03:49:38.774Z,0
2023-08-17T03:50:54.899Z,0
2023-08-17T03:52:11.014Z,0
2023-08-17T03:53:27.125Z,0
2023-08-17T03:54:43.241Z,0
2023-08-17T03:55:59.341Z,0
2023-08-17T03:57:15.569Z,0
2023-08-17T03:58:30.786Z,0
2023-08-17T03:59:46.833Z,0
2023-08-17T04:01:02.913Z,0
2023-08-17T04:02:18.973Z,0
2023-08-17T04:03:35.041Z,0
2023-08-17T04:04:51.084Z,0
2023-08-17T04:06:07.163Z,0
2023-08-17T04:07:23.216Z,0
2023-08-17T04:08:39.266Z,0
2023-08-17T04:09:55.333Z,4
2023-08-17T04:11:11.393Z,4
2023-08-17T04:12:27.459Z,4
2023-08-17T04:13:43.511Z,4
2023-08-17T04:14:59.570Z,4
2023-08-17T04:16:15.623Z,4
2023-08-17T04:17:31.674Z,4
2023-08-17T04:18:47.000Z,8
2023-08-17T04:20:03.781Z,8
2023-08-17T04:21:19.846Z,8
2023-08-17T04:22:35.917Z,8
2023-08-17T04:23:51.978Z,12
2023-08-17T04:25:08.022Z,12
2023-08-17T04:26:24.081Z,12
2023-08-17T04:27:40.133Z,16
2023-08-17T04:28:56.208Z,16
2023-08-17T04:30:12.329Z,16
2023-08-17T04:31:28.439Z,20
2023-08-17T04:32:44.564Z,24
2023-08-17T04:34:00.690Z,24
2023-08-17T04:35:16.811Z,28
2023-08-17T04:36:32.929Z,32
2023-08-17T04:37:49.035Z,36
2023-08-17T04:39:04.182Z,40
2023-08-17T04:40:20.257Z,40
2023-08-17T04:41:36.309Z,44
2023-08-17T04:42:52.382Z,48
2023-08-17T04:44:08.436Z,52
2023-08-17T04:45:24.494Z,56
2023-08-17T04:46:40.574Z,60
2023-08-17T04:47:56.633Z,60
2023-08-17T04:49:12.696Z,60
2023-08-17T04:50:28.759Z,64
2023-08-17T04:51:44.811Z,64
2023-08-17T04:53:00.878Z,68
2023-08-17T04:54:16.959Z,72
2023-08-17T04:55:33.017Z,76
2023-08-17T04:56:49.088Z,76
2023-08-17T04:58:05.155Z,84
2023-08-17T04:59:21.231Z,84
2023-08-17T05:00:37.284Z,84
2023-08-17T05:01:53.360Z,88
2023-08-17T05:03:09.428Z,92
2023-08-17T05:04:25.496Z,92
2023-08-17T05:05:41.561Z,88
2023-08-17T05:06:57.639Z,92
2023-08-17T05:08:13.720Z,92
2023-08-17T05:09:29.786Z,92
2023-08-17T05:10:45.901Z,96
2023-08-17T05:12:02.038Z,96
2023-08-17T05:13:18.153Z,96
2023-08-17T05:14:34.279Z,92
2023-08-17T05:15:49.446Z,96
2023-08-17T05:17:05.500Z,96
2023-08-17T05:18:21.570Z,96
2023-08-17T05:19:37.645Z,92
2023-08-17T05:20:53.702Z,88
2023-08-17T05:22:09.783Z,84
2023-08-17T05:23:25.849Z,84
2023-08-17T05:24:41.922Z,84
2023-08-17T05:25:57.982Z,92
2023-08-17T05:27:14.047Z,100
2023-08-17T05:28:30.127Z,100
2023-08-17T05:29:46.185Z,88
2023-08-17T05:31:02.245Z,92
2023-08-17T05:32:18.312Z,96
2023-08-17T05:33:34.384Z,112
2023-08-17T05:34:50.446Z,124
2023-08-17T05:36:06.516Z,132
2023-08-17T05:37:22.579Z,128
2023-08-17T05:38:38.643Z,140
2023-08-17T05:39:54.715Z,140
2023-08-17T05:41:10.791Z,144
2023-08-17T05:42:26.856Z,148
2023-08-17T05:43:42.921Z,148
2023-08-17T05:44:58.994Z,148
2023-08-17T05:46:15.053Z,140
2023-08-17T05:47:31.176Z,100
2023-08-17T05:48:47.310Z,144
2023-08-17T05:50:03.434Z,140
2023-08-17T05:51:19.557Z,152
2023-08-17T05:52:35.688Z,156
2023-08-17T05:53:51.809Z,156
2023-08-17T05:55:06.967Z,156
2023-08-17T05:56:23.017Z,152
2023-08-17T05:57:39.091Z,148
2023-08-17T05:58:55.156Z,152
2023-08-17T06:00:11.219Z,156
2023-08-17T06:01:27.281Z,164
2023-08-17T06:02:43.355Z,164
2023-08-17T06:03:59.399Z,188
2023-08-17T06:05:15.480Z,200
2023-08-17T06:06:31.532Z,184
2023-08-17T06:07:47.605Z,180
2023-08-17T06:09:03.665Z,168
2023-08-17T06:10:19.708Z,168
2023-08-17T06:11:35.783Z,184
2023-08-17T06:12:51.849Z,204
2023-08-17T06:15:23.980Z,200
2023-08-17T06:16:40.033Z,204
2023-08-17T06:17:56.090Z,208
2023-08-17T06:19:12.156Z,204
2023-08-17T06:20:28.216Z,200
2023-08-17T06:21:44.276Z,200
2023-08-17T06:23:00.322Z,204
2023-08-17T06:24:16.394Z,208
2023-08-17T06:25:32.452Z,216
2023-08-17T06:26:48.569Z,224
2023-08-17T06:28:04.685Z,228
2023-08-17T06:29:20.801Z,240
2023-08-17T06:30:36.909Z,240
2023-08-17T06:31:53.023Z,252
2023-08-17T06:33:09.147Z,256
2023-08-17T06:34:25.269Z,252
2023-08-17T06:35:41.385Z,260
2023-08-17T06:36:57.509Z,272
2023-08-17T06:38:13.616Z,256
2023-08-17T06:40:45.875Z,284
2023-08-17T06:42:01.985Z,272
2023-08-17T06:43:18.198Z,284
2023-08-17T06:44:33.425Z,268
2023-08-17T06:45:49.497Z,260
2023-08-17T06:47:05.552Z,256
2023-08-17T06:48:21.608Z,236
2023-08-17T06:49:37.685Z,268
2023-08-17T06:50:53.742Z,260
2023-08-17T06:52:09.822Z,248
2023-08-17T06:53:25.894Z,276
2023-08-17T06:54:41.959Z,260
2023-08-17T06:55:58.012Z,240
2023-08-17T06:57:14.090Z,264
2023-08-17T06:58:30.157Z,268
2023-08-17T06:59:46.217Z,248
2023-08-17T07:01:02.284Z,264
2023-08-17T07:02:18.343Z,300
2023-08-17T07:03:34.409Z,320
2023-08-17T07:04:50.478Z,324
2023-08-17T07:06:06.525Z,336
2023-08-17T07:07:22.592Z,292
2023-08-17T07:08:38.659Z,276
2023-08-17T07:09:54.718Z,292
2023-08-17T07:11:10.793Z,284
2023-08-17T07:12:26.852Z,288
2023-08-17T07:13:42.909Z,276
2023-08-17T07:14:58.965Z,296
2023-08-17T07:16:15.092Z,268
2023-08-17T07:17:31.215Z,264
2023-08-17T07:18:47.344Z,276
2023-08-17T07:20:03.467Z,280
2023-08-17T07:21:19.582Z,280
2023-08-17T07:22:34.723Z,288
2023-08-17T07:23:50.785Z,284
2023-08-17T07:25:06.866Z,316
2023-08-17T07:26:22.916Z,332
2023-08-17T07:27:38.984Z,300
2023-08-17T07:28:55.047Z,292
2023-08-17T07:30:11.107Z,304
2023-08-17T07:31:27.171Z,324
2023-08-17T07:32:43.238Z,308
2023-08-17T07:33:59.290Z,284
2023-08-17T07:35:15.363Z,276
2023-08-17T07:36:31.421Z,288
2023-08-17T07:37:47.490Z,284
2023-08-17T07:39:03.541Z,260
2023-08-17T07:40:19.606Z,292
2023-08-17T07:41:35.671Z,284
2023-08-17T07:42:51.737Z,296
2023-08-17T07:44:07.798Z,308
2023-08-17T07:45:23.879Z,288
2023-08-17T07:46:39.944Z,280
2023-08-17T07:47:55.999Z,268
2023-08-17T07:49:12.057Z,288
2023-08-17T07:50:28.135Z,288
2023-08-17T07:51:44.189Z,284
2023-08-17T07:53:00.253Z,284
2023-08-17T07:54:16.363Z,288
2023-08-17T07:55:32.485Z,296
2023-08-17T07:56:48.599Z,304
2023-08-17T07:58:04.706Z,288
2023-08-17T07:59:20.820Z,292
2023-08-17T08:00:36.948Z,280
2023-08-17T08:01:53.056Z,296
2023-08-17T08:03:09.185Z,288
2023-08-17T08:04:25.295Z,292
2023-08-17T08:05:41.412Z,320
2023-08-17T08:06:57.539Z,312
2023-08-17T08:08:13.656Z,316
2023-08-17T08:09:29.778Z,288
2023-08-17T08:10:45.992Z,292
2023-08-17T08:12:01.218Z,300
2023-08-17T08:13:17.283Z,312
2023-08-17T08:14:33.338Z,304
2023-08-17T08:15:49.388Z,344
2023-08-17T08:17:05.454Z,400
2023-08-17T08:18:21.498Z,432
2023-08-17T08:19:37.567Z,468
2023-08-17T08:20:53.624Z,388
2023-08-17T08:22:09.676Z,368
2023-08-17T08:23:25.735Z,376
2023-08-17T08:24:41.793Z,448
2023-08-17T08:25:57.860Z,460
2023-08-17T08:27:13.915Z,480
2023-08-17T08:28:29.985Z,428
2023-08-17T08:29:46.044Z,372
2023-08-17T08:31:02.099Z,368
2023-08-17T08:32:18.155Z,348
2023-08-17T08:33:34.209Z,364
2023-08-17T08:34:50.289Z,320
2023-08-17T08:36:06.346Z,324
2023-08-17T08:37:22.412Z,300
2023-08-17T08:38:38.464Z,272
2023-08-17T08:39:54.523Z,284
2023-08-17T08:41:10.599Z,320
2023-08-17T08:42:26.656Z,340
2023-08-17T08:43:42.757Z,352
2023-08-17T08:44:58.888Z,396
2023-08-17T08:46:15.013Z,392
2023-08-17T08:47:31.129Z,372
2023-08-17T08:48:47.227Z,364
2023-08-17T08:50:03.357Z,348
2023-08-17T08:51:19.465Z,364
2023-08-17T08:52:35.581Z,348
2023-08-17T08:53:51.692Z,384
2023-08-17T08:55:07.819Z,428
2023-08-17T08:56:23.935Z,420
2023-08-17T08:57:40.058Z,356
2023-08-17T08:58:56.173Z,344
2023-08-17T09:00:12.405Z,316
2023-08-17T09:01:27.621Z,324
2023-08-17T09:02:43.679Z,300
2023-08-17T09:03:59.732Z,364
2023-08-17T09:05:15.791Z,508
2023-08-17T09:06:31.863Z,564
2023-08-17T09:07:47.930Z,524
2023-08-17T09:09:03.982Z,484
2023-08-17T09:10:20.033Z,400
2023-08-17T09:11:36.101Z,376
2023-08-17T09:12:52.156Z,384
2023-08-17T09:14:08.216Z,344
2023-08-17T09:15:24.301Z,356
2023-08-17T09:16:40.353Z,364
2023-08-17T09:17:56.409Z,372
2023-08-17T09:19:12.467Z,356
2023-08-17T09:20:28.541Z,340
2023-08-17T09:21:44.601Z,340
2023-08-17T09:23:00.668Z,356
2023-08-17T09:24:16.719Z,348
2023-08-17T09:25:32.779Z,344
2023-08-17T09:26:48.838Z,316
2023-08-17T09:28:04.896Z,308
2023-08-17T09:29:20.962Z,356
2023-08-17T09:30:37.022Z,324
2023-08-17T09:31:53.074Z,296
2023-08-17T09:33:09.189Z,288
2023-08-17T09:34:25.319Z,304
2023-08-17T09:35:41.421Z,308
2023-08-17T09:36:57.542Z,316
2023-08-17T09:38:13.660Z,312
2023-08-17T09:39:29.782Z,276
2023-08-17T09:40:45.885Z,268
2023-08-17T09:42:02.012Z,268
2023-08-17T09:43:18.121Z,288
2023-08-17T09:44:34.251Z,312
2023-08-17T09:45:50.348Z,336
2023-08-17T09:47:06.482Z,372
2023-08-17T09:48:22.590Z,396
2023-08-17T09:49:38.819Z,404
2023-08-17T09:50:54.031Z,368
2023-08-17T09:52:10.090Z,372
2023-08-17T09:53:26.134Z,344
2023-08-17T09:54:42.194Z,340
2023-08-17T09:55:58.266Z,352
2023-08-17T09:57:14.332Z,392
2023-08-17T09:58:30.386Z,420
2023-08-17T09:59:46.443Z,476
2023-08-17T10:01:02.509Z,520
2023-08-17T10:02:18.583Z,476
2023-08-17T10:03:34.635Z,436
2023-08-17T10:04:50.700Z,392
2023-08-17T10:06:06.745Z,328
2023-08-17T10:07:22.818Z,316
2023-08-17T10:08:38.879Z,348
2023-08-17T10:09:54.938Z,348
2023-08-17T10:11:10.995Z,388
2023-08-17T10:12:27.063Z,400
2023-08-17T10:13:43.110Z,396
2023-08-17T10:14:59.181Z,388
2023-08-17T10:16:15.235Z,356
2023-08-17T10:17:31.292Z,372
2023-08-17T10:18:47.357Z,444
2023-08-17T10:20:03.417Z,512
2023-08-17T10:21:19.483Z,512
2023-08-17T10:22:35.601Z,484
2023-08-17T10:23:51.723Z,472
2023-08-17T10:25:07.842Z,444
2023-08-17T10:26:23.960Z,388
2023-08-17T10:27:40.090Z,412
2023-08-17T10:28:56.226Z,428
2023-08-17T10:30:12.345Z,476
2023-08-17T10:31:28.469Z,484
2023-08-17T10:32:43.606Z,468
2023-08-17T10:33:59.660Z,452
2023-08-17T10:35:15.730Z,376
2023-08-17T10:36:31.790Z,340
2023-08-17T10:37:47.859Z,340
2023-08-17T10:39:03.912Z,348
2023-08-17T10:40:19.966Z,336
2023-08-17T10:41:36.032Z,340
2023-08-17T10:42:52.092Z,324
2023-08-17T10:44:08.161Z,320
2023-08-17T10:45:24.214Z,320
2023-08-17T10:46:40.268Z,320
2023-08-17T10:47:56.334Z,328
2023-08-17T10:49:12.386Z,332
2023-08-17T10:50:28.459Z,348
2023-08-17T10:51:44.507Z,388
2023-08-17T10:53:00.578Z,396
2023-08-17T10:54:16.644Z,396
2023-08-17T10:55:32.690Z,404
2023-08-17T10:56:48.770Z,388
2023-08-17T10:58:04.829Z,408
2023-08-17T10:59:20.896Z,404
2023-08-17T11:00:36.961Z,424
2023-08-17T11:01:53.020Z,436
2023-08-17T11:03:09.089Z,464
2023-08-17T11:04:25.223Z,496
2023-08-17T11:05:41.331Z,508
2023-08-17T11:06:57.447Z,512
2023-08-17T11:08:13.577Z,516
2023-08-17T11:09:29.705Z,508
2023-08-17T11:10:45.819Z,492
2023-08-17T11:12:01.945Z,452
2023-08-17T11:13:18.069Z,432
2023-08-17T11:14:34.190Z,436
2023-08-17T11:15:50.312Z,504
2023-08-17T11:17:06.421Z,604
2023-08-17T11:18:22.536Z,628
2023-08-17T11:19:38.659Z,564
2023-08-17T11:20:54.884Z,556
2023-08-17T11:22:10.174Z,520
2023-08-17T11:23:26.285Z,500
2023-08-17T11:24:42.395Z,480
2023-08-17T11:25:58.515Z,484
2023-08-17T11:27:14.640Z,492
2023-08-17T11:28:30.777Z,476
2023-08-17T11:29:46.899Z,476
2023-08-17T11:31:03.008Z,520
2023-08-17T11:32:19.122Z,516
2023-08-17T11:33:35.253Z,508
2023-08-17T11:34:51.368Z,520
2023-08-17T11:36:07.476Z,544
2023-08-17T11:37:23.592Z,588
2023-08-17T11:38:39.723Z,600
2023-08-17T11:39:55.830Z,596
2023-08-17T11:41:11.961Z,584
2023-08-17T11:42:28.071Z,556
2023-08-17T11:43:44.192Z,552
2023-08-17T11:45:00.306Z,552
2023-08-17T11:46:16.414Z,536
2023-08-17T11:47:32.533Z,524
2023-08-17T11:48:48.651Z,512
2023-08-17T11:50:04.789Z,524
2023-08-17T11:51:20.898Z,532
2023-08-17T11:52:37.035Z,540
2023-08-17T11:53:52.189Z,524
2023-08-17T11:55:08.249Z,540
2023-08-17T11:56:24.315Z,576
2023-08-17T11:57:40.362Z,596
2023-08-17T11:58:56.427Z,588
2023-08-17T12:00:12.490Z,576
2023-08-17T12:01:28.559Z,592
2023-08-17T12:02:44.625Z,560
2023-08-17T12:04:00.683Z,496
2023-08-17T12:05:16.750Z,464
2023-08-17T12:06:32.816Z,440
2023-08-17T12:07:48.875Z,424
2023-08-17T12:09:04.941Z,416
2023-08-17T12:10:20.993Z,416
2023-08-17T12:11:37.077Z,424
2023-08-17T12:12:53.125Z,432
2023-08-17T12:14:09.191Z,444
2023-08-17T12:15:25.241Z,452
2023-08-17T12:16:41.304Z,412
2023-08-17T12:17:57.382Z,384
2023-08-17T12:19:13.450Z,388
2023-08-17T12:20:29.494Z,392
2023-08-17T12:21:45.560Z,408
2023-08-17T12:23:01.629Z,388
2023-08-17T12:24:17.699Z,388
2023-08-17T12:25:33.810Z,388
2023-08-17T12:26:49.923Z,396
2023-08-17T12:28:06.045Z,412
2023-08-17T12:29:22.155Z,428
2023-08-17T12:30:38.275Z,444
2023-08-17T12:31:54.386Z,448
2023-08-17T12:33:10.515Z,452
2023-08-17T12:34:26.630Z,440
2023-08-17T12:35:42.742Z,412
2023-08-17T12:36:58.855Z,388
2023-08-17T12:38:14.987Z,380
2023-08-17T12:39:31.092Z,372
2023-08-17T12:40:47.219Z,376
2023-08-17T12:42:03.444Z,376
2023-08-17T12:43:18.656Z,392
2023-08-17T12:44:34.715Z,388
2023-08-17T12:45:50.788Z,396
2023-08-17T12:47:06.855Z,408
2023-08-17T12:48:22.905Z,420
2023-08-17T12:49:38.978Z,412
2023-08-17T12:50:55.045Z,396
2023-08-17T12:52:11.096Z,380
2023-08-17T12:53:27.157Z,388
2023-08-17T12:54:43.228Z,424
2023-08-17T12:55:59.302Z,424
2023-08-17T12:57:15.375Z,428
2023-08-17T12:58:31.420Z,436
2023-08-17T12:59:47.500Z,444
2023-08-17T13:01:03.545Z,456
2023-08-17T13:02:19.617Z,460
2023-08-17T13:03:35.686Z,460
2023-08-17T13:04:51.750Z,468
2023-08-17T13:06:07.817Z,476
2023-08-17T13:07:23.883Z,468
2023-08-17T13:08:39.935Z,480
2023-08-17T13:09:56.001Z,448
2023-08-17T13:11:12.060Z,436
2023-08-17T13:12:28.132Z,416
2023-08-17T13:13:44.200Z,412
2023-08-17T13:15:00.316Z,448
2023-08-17T13:16:16.425Z,464
2023-08-17T13:17:32.540Z,468
2023-08-17T13:18:48.655Z,464
2023-08-17T13:20:04.784Z,484
2023-08-17T13:21:20.886Z,520
2023-08-17T13:22:36.994Z,484
2023-08-17T13:23:53.099Z,424
2023-08-17T13:25:09.214Z,400
2023-08-17T13:26:25.348Z,412
2023-08-17T13:27:41.467Z,440
2023-08-17T13:28:57.573Z,448
2023-08-17T13:30:13.688Z,476
2023-08-17T13:31:29.924Z,496
2023-08-17T13:32:45.198Z,532
2023-08-17T13:34:01.300Z,544
2023-08-17T13:35:17.429Z,488
2023-08-17T13:36:33.548Z,412
2023-08-17T13:37:49.663Z,376
2023-08-17T13:39:05.779Z,368
2023-08-17T13:40:21.890Z,388
2023-08-17T13:41:37.999Z,400
2023-08-17T13:42:54.109Z,400
2023-08-17T13:44:10.224Z,360
2023-08-17T13:45:26.341Z,368
2023-08-17T13:46:42.457Z,384
2023-08-17T13:47:58.585Z,436
2023-08-17T13:49:14.688Z,416
2023-08-17T13:50:30.809Z,400
2023-08-17T13:51:46.917Z,424
2023-08-17T13:53:03.048Z,464
2023-08-17T13:54:18.174Z,520
2023-08-17T13:55:34.250Z,580
2023-08-17T13:56:50.299Z,568
2023-08-17T13:58:06.366Z,540
2023-08-17T13:59:22.415Z,544
2023-08-17T14:00:38.469Z,548
2023-08-17T14:01:54.544Z,536
2023-08-17T14:03:10.587Z,508
2023-08-17T14:04:26.661Z,448
2023-08-17T14:05:42.721Z,416
2023-08-17T14:06:58.758Z,440
2023-08-17T14:08:14.824Z,408
2023-08-17T14:09:30.876Z,420
2023-08-17T14:10:46.935Z,388
2023-08-17T14:12:03.004Z,320
2023-08-17T14:13:19.051Z,292
2023-08-17T14:14:35.111Z,288
2023-08-17T14:15:51.165Z,280
2023-08-17T14:17:07.231Z,276
2023-08-17T14:18:23.296Z,292
2023-08-17T14:19:39.363Z,320
2023-08-17T14:20:55.420Z,336
2023-08-17T14:22:11.468Z,328
2023-08-17T14:23:27.533Z,308
2023-08-17T14:24:43.606Z,276
2023-08-17T14:25:59.725Z,296
2023-08-17T14:27:14.899Z,332
2023-08-17T14:28:31.007Z,348
2023-08-17T14:29:47.132Z,356
2023-08-17T14:31:03.251Z,360
2023-08-17T14:32:19.367Z,372
2023-08-17T14:33:35.483Z,388
2023-08-17T14:34:51.612Z,400
2023-08-17T14:36:07.735Z,400
2023-08-17T14:37:23.850Z,432
2023-08-17T14:38:39.959Z,468
2023-08-17T14:39:56.092Z,500
2023-08-17T14:41:12.217Z,488
2023-08-17T14:42:28.340Z,456
2023-08-17T14:43:44.450Z,428
2023-08-17T14:45:00.558Z,404
2023-08-17T14:46:16.674Z,396
2023-08-17T14:47:32.810Z,352
2023-08-17T14:48:48.919Z,324
2023-08-17T14:50:05.041Z,320
2023-08-17T14:51:21.150Z,324
2023-08-17T14:52:37.266Z,348
2023-08-17T14:53:53.381Z,368
2023-08-17T14:55:09.514Z,368
2023-08-17T14:56:25.626Z,364
2023-08-17T14:57:41.742Z,356
2023-08-17T14:58:57.872Z,352
2023-08-17T15:00:13.991Z,356
2023-08-17T15:01:30.117Z,368
2023-08-17T15:02:46.228Z,372
2023-08-17T15:04:02.334Z,360
2023-08-17T15:05:18.470Z,364
2023-08-17T15:06:34.572Z,360
2023-08-17T15:07:50.695Z,356
2023-08-17T15:09:06.802Z,320
2023-08-17T15:10:22.933Z,288
2023-08-17T15:11:39.041Z,324
2023-08-17T15:12:55.150Z,340
2023-08-17T15:14:11.370Z,312
2023-08-17T15:15:26.583Z,248
2023-08-17T15:16:42.641Z,276
2023-08-17T15:17:58.686Z,308
2023-08-17T15:19:14.756Z,300
2023-08-17T15:20:30.805Z,308
2023-08-17T15:21:46.873Z,308
2023-08-17T15:23:02.923Z,304
2023-08-17T15:24:18.975Z,292
2023-08-17T15:25:35.022Z,272
2023-08-17T15:26:51.079Z,264
2023-08-17T15:28:07.145Z,268
2023-08-17T15:29:23.204Z,272
2023-08-17T15:30:39.248Z,280
2023-08-17T15:31:55.304Z,292
2023-08-17T15:33:11.354Z,292
2023-08-17T15:34:27.412Z,288
2023-08-17T15:35:43.464Z,288
2023-08-17T15:36:59.530Z,296
2023-08-17T15:38:15.580Z,316
2023-08-17T15:39:31.628Z,316
2023-08-17T15:40:47.685Z,344
2023-08-17T15:42:03.731Z,376
2023-08-17T15:43:19.811Z,352
2023-08-17T15:44:35.849Z,352
2023-08-17T15:45:51.923Z,316
2023-08-17T15:47:08.025Z,276
2023-08-17T15:48:24.147Z,260
2023-08-17T15:49:40.254Z,216
2023-08-17T15:50:56.371Z,196
2023-08-17T15:52:12.472Z,164
2023-08-17T15:53:28.580Z,148
2023-08-17T15:54:44.710Z,160
2023-08-17T15:56:00.820Z,156
2023-08-17T15:57:16.934Z,164
2023-08-17T15:58:33.042Z,184
2023-08-17T15:59:49.144Z,184
2023-08-17T16:01:05.260Z,200
2023-08-17T16:02:21.375Z,236
2023-08-17T16:03:37.603Z,236
2023-08-17T16:04:52.809Z,232
2023-08-17T16:06:08.853Z,248
2023-08-17T16:07:24.898Z,216
2023-08-17T16:08:40.956Z,196
2023-08-17T16:09:57.010Z,168
2023-08-17T16:11:13.075Z,160
2023-08-17T16:12:29.120Z,156
2023-08-17T16:13:45.194Z,148
2023-08-17T16:15:01.260Z,148
2023-08-17T16:16:17.314Z,152
2023-08-17T16:17:33.366Z,140
2023-08-17T16:18:49.422Z,136
2023-08-17T16:20:05.484Z,140
2023-08-17T16:21:21.528Z,148
2023-08-17T16:22:37.593Z,140
2023-08-17T16:23:53.664Z,136
2023-08-17T16:25:09.711Z,148
2023-08-17T16:26:25.770Z,148
2023-08-17T16:27:41.829Z,144
2023-08-17T16:28:57.888Z,136
2023-08-17T16:30:13.955Z,148
2023-08-17T16:31:30.015Z,156
2023-08-17T16:32:46.093Z,164
2023-08-17T16:34:02.138Z,172
2023-08-17T16:35:18.219Z,192
2023-08-17T16:36:34.338Z,200
2023-08-17T16:37:50.457Z,188
2023-08-17T16:39:06.572Z,164
2023-08-17T16:40:22.688Z,152
2023-08-17T16:41:38.798Z,152
2023-08-17T16:42:54.908Z,144
2023-08-17T16:44:11.037Z,148
2023-08-17T16:45:27.150Z,144
2023-08-17T16:46:43.260Z,144
2023-08-17T16:47:59.374Z,144
2023-08-17T16:49:15.489Z,144
2023-08-17T16:50:31.598Z,148
2023-08-17T16:51:47.721Z,164
2023-08-17T16:53:03.952Z,148
2023-08-17T16:54:19.168Z,148
2023-08-17T16:55:35.215Z,144
2023-08-17T16:56:51.286Z,152
2023-08-17T16:58:07.345Z,144
2023-08-17T16:59:23.391Z,136
2023-08-17T17:00:39.453Z,144
2023-08-17T17:01:55.518Z,132
2023-08-17T17:03:11.568Z,148
2023-08-17T17:04:27.640Z,136
2023-08-17T17:05:43.696Z,132
2023-08-17T17:06:59.751Z,120
2023-08-17T17:08:15.817Z,112
2023-08-17T17:09:31.882Z,128
2023-08-17T17:10:47.928Z,128
2023-08-17T17:12:03.997Z,120
2023-08-17T17:13:20.060Z,128
2023-08-17T17:14:36.117Z,108
2023-08-17T17:15:52.158Z,100
2023-08-17T17:17:08.209Z,84
2023-08-17T17:18:24.269Z,64
2023-08-17T17:19:40.330Z,60
2023-08-17T17:20:56.393Z,60
2023-08-17T17:22:12.454Z,72
2023-08-17T17:23:28.505Z,92
2023-08-17T17:24:44.548Z,104
2023-08-17T17:26:00.665Z,96
2023-08-17T17:27:16.779Z,92
2023-08-17T17:28:32.897Z,76
2023-08-17T17:29:49.012Z,68
2023-08-17T17:31:05.121Z,68
2023-08-17T17:32:21.237Z,68
2023-08-17T17:33:37.339Z,68
2023-08-17T17:34:53.460Z,64
2023-08-17T17:36:09.569Z,64
2023-08-17T17:37:25.698Z,64
2023-08-17T17:38:41.821Z,60
2023-08-17T17:39:57.928Z,52
2023-08-17T17:41:14.039Z,44
2023-08-17T17:42:30.267Z,40
2023-08-17T17:43:45.529Z,40
2023-08-17T17:45:01.645Z,40
2023-08-17T17:46:17.773Z,44
2023-08-17T17:47:33.881Z,40
2023-08-17T17:48:49.996Z,44
2023-08-17T17:50:06.112Z,56
2023-08-17T17:51:22.214Z,52
2023-08-17T17:52:38.343Z,48